Time;durP1;ratioP1;P1;durP2;ratioP2;P2;SDS_P1;SDS_P2;PMS_P1;PMS_P2;Temp;Humidity;BMP_temperature;BMP_pressure;BME280_temperature;BME280_humidity;BME280_pressure;Samples;Min_cycle;Max_cycle;Signal;HPM_P1;HPM_P2
2024/03/14 00:01:06;;;;;;;6.05;4.50;;;11.30;99.90;;;;;;4992463;28;20046;-71
2024/03/14 00:03:33;;;;;;;7.35;4.72;;;11.30;99.90;;;;;;4991113;28;20100;-71
2024/03/14 00:06:01;;;;;;;6.97;5.90;;;11.30;99.90;;;;;;4992155;28;20563;-71
2024/03/14 00:08:28;;;;;;;6.93;5.25;;;11.30;99.90;;;;;;4991397;28;20078;-71
2024/03/14 00:10:55;;;;;;;9.38;5.68;;;11.40;99.90;;;;;;4974782;28;20049;-71
2024/03/14 00:13:23;;;;;;;9.98;6.28;;;11.30;99.90;;;;;;4991137;28;20399;-71
2024/03/14 00:15:50;;;;;;;9.15;7.50;;;11.30;99.90;;;;;;4991913;28;20400;-71
2024/03/14 00:18:17;;;;;;;6.15;5.45;;;11.30;99.90;;;;;;4990069;28;20396;-71
2024/03/14 00:20:44;;;;;;;4.63;3.65;;;11.30;99.90;;;;;;4990836;28;20078;-72
2024/03/14 00:23:11;;;;;;;6.15;5.53;;;11.30;99.90;;;;;;4992276;28;20042;-71
2024/03/14 00:25:40;;;;;;;7.32;4.85;;;11.30;99.90;;;;;;4990972;28;20094;-71
2024/03/14 00:28:10;;;;;;;5.55;4.50;;;11.20;99.90;;;;;;4990816;28;20057;-71
2024/03/14 00:30:37;;;;;;;5.68;5.07;;;11.30;99.90;;;;;;4990834;28;20053;-71
2024/03/14 00:33:05;;;;;;;7.05;5.53;;;11.30;99.90;;;;;;4991937;28;20046;-71
2024/03/14 00:35:32;;;;;;;8.30;6.32;;;11.30;99.90;;;;;;4990651;28;20056;-71
2024/03/14 00:37:59;;;;;;;6.88;4.55;;;11.20;99.90;;;;;;4992085;28;20038;-71
2024/03/14 00:40:26;;;;;;;5.30;4.72;;;11.20;99.90;;;;;;4991977;28;20046;-71
2024/03/14 00:42:53;;;;;;;4.78;4.25;;;11.20;99.90;;;;;;4991800;28;20047;-71
2024/03/14 00:45:20;;;;;;;6.10;4.75;;;11.20;99.90;;;;;;4983813;28;292196;-71
2024/03/14 00:47:47;;;;;;;4.30;3.80;;;11.30;99.90;;;;;;5007426;28;20074;-71
2024/03/14 00:50:14;;;;;;;7.78;6.90;;;11.30;99.90;;;;;;4991445;28;20042;-71
2024/03/14 00:52:41;;;;;;;8.52;4.93;;;11.20;99.90;;;;;;4992797;28;20065;-72
2024/03/14 00:55:09;;;;;;;6.68;5.88;;;11.20;99.90;;;;;;4991305;28;20035;-71
2024/03/14 00:57:38;;;;;;;7.05;5.15;;;11.20;99.90;;;;;;4992721;28;20046;-71
2024/03/14 01:00:12;;;;;;;6.32;5.20;;;11.20;99.90;;;;;;4992635;28;20475;-71
2024/03/14 01:02:41;;;;;;;7.43;6.72;;;11.20;99.90;;;;;;4992606;28;20404;-72
2024/03/14 01:05:08;;;;;;;6.50;5.05;;;11.20;99.90;;;;;;4991161;28;20046;-71
2024/03/14 01:07:36;;;;;;;7.60;6.80;;;11.20;99.90;;;;;;4992876;28;20571;-71
2024/03/14 01:10:04;;;;;;;8.45;6.25;;;11.20;99.90;;;;;;4991222;28;20038;-71
2024/03/14 01:12:32;;;;;;;9.77;6.43;;;11.20;99.90;;;;;;4992665;28;20388;-71
2024/03/14 01:14:59;;;;;;;8.45;7.60;;;11.20;99.90;;;;;;4990962;28;20065;-71
2024/03/14 01:17:26;;;;;;;6.60;5.68;;;11.20;99.90;;;;;;4992738;28;20042;-71
2024/03/14 01:19:53;;;;;;;5.53;4.90;;;11.20;99.90;;;;;;4991144;28;20042;-71
2024/03/14 01:22:20;;;;;;;7.45;5.05;;;11.20;99.90;;;;;;4991342;28;20074;-71
2024/03/14 01:24:48;;;;;;;7.47;5.75;;;11.20;99.90;;;;;;4991046;28;20134;-71
2024/03/14 01:27:18;;;;;;;5.80;4.85;;;11.20;99.90;;;;;;4991049;28;20042;-71
2024/03/14 01:29:45;;;;;;;11.68;6.25;;;11.20;99.90;;;;;;4994315;28;20050;-72
2024/03/14 01:32:13;;;;;;;9.90;8.82;;;11.20;99.90;;;;;;4978455;28;20448;-71
2024/03/14 01:34:40;;;;;;;7.72;6.93;;;11.20;99.90;;;;;;4995847;28;20042;-71
2024/03/14 01:37:10;;;;;;;11.55;7.75;;;11.30;99.90;;;;;;4994437;28;20092;-71
2024/03/14 01:39:37;;;;;;;8.95;7.57;;;11.20;99.90;;;;;;4994536;28;20053;-71
2024/03/14 01:42:05;;;;;;;8.30;5.82;;;11.20;99.90;;;;;;4994253;28;20064;-71
2024/03/14 01:44:44;;;;;;;11.52;6.95;;;11.20;99.90;;;;;;4978278;28;20042;-72
2024/03/14 01:47:11;;;;;;;10.52;8.75;;;11.20;99.90;;;;;;4994236;28;20483;-71
2024/03/14 01:49:38;;;;;;;9.50;7.00;;;11.10;99.90;;;;;;4995654;28;20561;-71
2024/03/14 01:52:05;;;;;;;9.13;7.95;;;11.10;99.90;;;;;;4978004;28;20140;-72
2024/03/14 01:54:34;;;;;;;9.00;7.30;;;11.10;99.90;;;;;;4995680;28;20042;-71
2024/03/14 01:57:01;;;;;;;9.23;6.43;;;11.00;99.90;;;;;;4995301;28;20085;-71
2024/03/14 01:59:28;;;;;;;11.50;8.63;;;10.90;99.90;;;;;;4995366;28;20046;-71
2024/03/14 02:01:57;;;;;;;12.50;11.07;;;10.90;99.90;;;;;;4977843;28;20574;-71
2024/03/14 02:04:32;;;;;;;12.40;8.27;;;10.80;99.90;;;;;;4994083;28;20105;-71
2024/03/14 02:07:08;;;;;;;13.80;10.43;;;10.70;99.90;;;;;;4993811;28;20105;-71
2024/03/14 02:09:36;;;;;;;10.45;6.90;;;10.60;99.90;;;;;;4995217;28;20077;-71
2024/03/14 02:12:06;;;;;;;9.23;6.80;;;10.60;99.90;;;;;;4995304;28;20038;-71
2024/03/14 02:14:33;;;;;;;11.25;8.55;;;10.60;99.90;;;;;;4995469;28;20038;-71
2024/03/14 02:17:02;;;;;;;6.75;5.90;;;10.50;99.90;;;;;;4977488;28;20124;-71
2024/03/14 02:19:32;;;;;;;11.30;8.68;;;10.50;99.90;;;;;;4995164;28;20053;-71
2024/03/14 02:22:02;;;;;;;11.18;7.53;;;10.40;99.90;;;;;;4993777;28;20263;-71
2024/03/14 02:24:28;;;;;;;10.93;7.47;;;10.30;99.90;;;;;;4993821;28;20049;-71
2024/03/14 02:26:56;;;;;;;11.48;8.52;;;10.30;99.90;;;;;;4977586;28;20133;-72
2024/03/14 02:29:23;;;;;;;13.80;8.65;;;10.30;99.90;;;;;;4994697;28;20121;-71
2024/03/14 02:31:51;;;;;;;10.95;7.57;;;10.20;99.90;;;;;;4994718;28;20121;-71
2024/03/14 02:34:19;;;;;;;13.55;8.45;;;10.20;99.90;;;;;;4993250;28;20108;-71
2024/03/14 02:36:46;;;;;;;11.65;8.48;;;10.20;99.90;;;;;;4994664;28;20046;-71
2024/03/14 02:39:22;;;;;;;11.77;7.90;;;10.10;99.90;;;;;;4976757;28;20054;-71
2024/03/14 02:41:50;;;;;;;12.93;7.60;;;10.10;99.90;;;;;;4992989;28;20140;-72
2024/03/14 02:44:18;;;;;;;14.93;9.55;;;10.10;99.90;;;;;;4994268;28;20042;-71
2024/03/14 02:46:51;;;;;;;11.60;8.18;;;10.10;99.90;;;;;;4994326;28;20133;-71
2024/03/14 02:49:20;;;;;;;11.40;8.43;;;10.10;99.90;;;;;;4992981;28;20483;-71
2024/03/14 02:51:47;;;;;;;9.43;6.07;;;10.00;99.90;;;;;;4993087;28;20046;-71
2024/03/14 02:54:15;;;;;;;11.52;7.15;;;10.00;99.90;;;;;;4994180;28;20101;-71
2024/03/14 02:56:49;;;;;;;11.10;7.85;;;10.00;99.90;;;;;;4994308;28;20039;-71
2024/03/14 02:59:17;;;;;;;11.82;9.63;;;9.90;99.90;;;;;;4977490;28;20070;-72
2024/03/14 03:01:44;;;;;;;6.70;6.03;;;9.90;99.90;;;;;;4994229;28;20432;-71
2024/03/14 03:04:11;;;;;;;13.30;6.43;;;9.80;99.90;;;;;;4993949;28;20046;-71
2024/03/14 03:06:55;;;;;;;9.45;7.03;;;9.80;99.90;;;;;;4992885;28;20054;-70
2024/03/14 03:09:22;;;;;;;16.33;10.52;;;9.80;99.90;;;;;;4993793;28;20044;-71
2024/03/14 03:11:49;;;;;;;12.85;9.45;;;9.70;99.90;;;;;;5025240;28;20420;-71
2024/03/14 03:14:16;;;;;;;13.02;7.65;;;9.70;99.90;;;;;;4992582;28;20145;-71
2024/03/14 03:16:44;;;;;;;12.73;8.85;;;9.60;99.90;;;;;;4992746;28;20038;-71
2024/03/14 03:19:13;;;;;;;12.73;8.90;;;9.60;99.90;;;;;;4992629;28;20050;-71
2024/03/14 03:21:40;;;;;;;11.93;8.73;;;9.60;99.90;;;;;;4992445;28;20554;-71
2024/03/14 03:24:07;;;;;;;11.32;8.00;;;9.50;99.90;;;;;;4976298;28;20042;-71
2024/03/14 03:26:35;;;;;;;13.35;6.53;;;9.50;99.90;;;;;;4993702;28;20057;-71
2024/03/14 03:29:02;;;;;;;12.70;6.60;;;9.50;99.90;;;;;;4992619;28;20042;-71
2024/03/14 03:31:30;;;;;;;7.70;6.38;;;9.50;99.90;;;;;;4990997;28;20065;-72
2024/03/14 03:33:57;;;;;;;12.32;8.55;;;9.50;99.90;;;;;;4992067;28;20049;-72
2024/03/14 03:36:26;;;;;;;11.15;8.43;;;9.50;99.90;;;;;;4991120;28;20054;-71
2024/03/14 03:38:54;;;;;;;12.63;8.98;;;9.50;99.90;;;;;;4992197;28;20122;-71
2024/03/14 03:41:23;;;;;;;11.55;9.48;;;9.50;99.90;;;;;;4993229;28;20503;-71
2024/03/14 03:43:50;;;;;;;11.85;8.10;;;9.50;99.90;;;;;;4992234;28;20052;-71
2024/03/14 03:46:17;;;;;;;11.55;7.25;;;9.50;99.90;;;;;;4991870;28;20129;-71
2024/03/14 03:48:44;;;;;;;10.10;7.78;;;9.50;99.90;;;;;;4992020;28;20089;-71
2024/03/14 03:51:17;;;;;;;11.02;7.53;;;9.60;99.90;;;;;;4975975;28;20100;-71
2024/03/14 03:53:45;;;;;;;13.07;10.48;;;9.60;99.90;;;;;;4992050;28;20400;-70
2024/03/14 03:56:14;;;;;;;14.02;12.52;;;9.60;99.90;;;;;;4993108;28;20539;-71
2024/03/14 03:58:42;;;;;;;11.02;8.18;;;9.60;99.90;;;;;;4992093;28;20057;-71
2024/03/14 04:01:12;;;;;;;10.00;7.40;;;9.70;99.90;;;;;;4991386;28;20496;-71
2024/03/14 04:03:40;;;;;;;10.55;7.25;;;9.70;99.90;;;;;;4973716;28;20074;-71
2024/03/14 04:06:12;;;;;;;9.85;8.85;;;9.70;99.90;;;;;;4970855;28;20441;-71
2024/03/14 04:08:39;;;;;;;9.77;6.35;;;9.70;99.90;;;;;;4973711;28;20117;-71
2024/03/14 04:11:09;;;;;;;9.13;6.97;;;9.70;99.90;;;;;;4972539;28;20046;-71
2024/03/14 04:13:36;;;;;;;12.27;8.32;;;9.70;99.90;;;;;;4973897;28;20045;-71
2024/03/14 04:16:04;;;;;;;10.07;7.75;;;9.70;99.90;;;;;;4972573;28;20074;-71
2024/03/14 04:18:32;;;;;;;9.65;7.15;;;9.70;99.90;;;;;;4972438;28;20046;-71
2024/03/14 04:20:59;;;;;;;11.45;9.77;;;9.70;99.90;;;;;;4972586;28;20042;-71
2024/03/14 04:23:26;;;;;;;12.18;10.10;;;9.70;99.90;;;;;;4972292;28;20134;-71
2024/03/14 04:25:56;;;;;;;13.95;9.93;;;9.70;99.90;;;;;;4973557;28;20058;-71
2024/03/14 04:28:23;;;;;;;9.02;7.60;;;9.60;99.90;;;;;;5012979;28;20065;-71
2024/03/14 04:30:51;;;;;;;9.63;6.43;;;9.60;99.90;;;;;;5012538;28;20483;-71
2024/03/14 04:33:19;;;;;;;9.52;6.88;;;9.60;99.90;;;;;;5043613;28;20048;-71
2024/03/14 04:35:46;;;;;;;9.38;8.27;;;9.50;99.90;;;;;;5043912;28;20132;-71
2024/03/14 04:38:13;;;;;;;7.72;6.70;;;9.50;99.90;;;;;;5027574;28;20121;-71
2024/03/14 04:40:40;;;;;;;10.52;8.40;;;9.50;99.90;;;;;;5012217;28;20092;-71
2024/03/14 04:43:09;;;;;;;10.20;8.73;;;9.50;99.90;;;;;;5012320;28;20052;-71
2024/03/14 04:45:36;;;;;;;16.05;14.52;;;9.40;99.90;;;;;;5010809;28;20092;-71
2024/03/14 04:48:04;;;;;;;12.45;10.05;;;9.40;99.90;;;;;;5011130;28;20462;-71
2024/03/14 04:50:32;;;;;;;7.75;6.43;;;9.40;99.90;;;;;;5027377;28;20104;-72
2024/03/14 04:52:59;;;;;;;9.00;8.10;;;9.30;99.90;;;;;;5027506;28;20050;-71
2024/03/14 04:55:27;;;;;;;12.65;9.63;;;9.30;99.90;;;;;;5027276;28;20042;-71
2024/03/14 04:57:54;;;;;;;9.93;7.43;;;9.30;99.90;;;;;;5011006;28;20086;-71
2024/03/14 05:00:21;;;;;;;10.43;8.95;;;9.30;99.90;;;;;;5027427;28;20048;-71
2024/03/14 05:02:49;;;;;;;11.23;10.13;;;9.20;99.90;;;;;;5043848;28;20088;-71
2024/03/14 05:05:17;;;;;;;8.38;6.00;;;9.20;99.90;;;;;;5014860;28;20034;-71
2024/03/14 05:07:44;;;;;;;11.15;7.68;;;9.20;99.90;;;;;;5014732;28;20141;-71
2024/03/14 05:10:14;;;;;;;11.60;9.05;;;9.20;99.90;;;;;;5014583;28;20100;-71
2024/03/14 05:12:42;;;;;;;12.68;9.38;;;9.20;99.90;;;;;;5046493;28;20570;-71
2024/03/14 05:15:09;;;;;;;10.70;8.43;;;9.20;99.90;;;;;;5047308;28;20487;-71
2024/03/14 05:17:36;;;;;;;9.63;7.65;;;9.20;99.90;;;;;;5014260;28;20057;-71
2024/03/14 05:20:07;;;;;;;11.57;8.52;;;9.20;99.90;;;;;;5015713;28;20053;-71
2024/03/14 05:22:33;;;;;;;12.00;9.35;;;9.20;99.90;;;;;;5015752;28;20048;-71
2024/03/14 05:25:06;;;;;;;12.68;10.27;;;9.20;99.90;;;;;;5047158;28;20042;-71
2024/03/14 05:27:33;;;;;;;9.18;8.25;;;9.10;99.90;;;;;;5014324;28;20057;-71
2024/03/14 05:30:00;;;;;;;10.23;8.50;;;9.10;99.90;;;;;;5015632;28;20045;-71
2024/03/14 05:32:28;;;;;;;10.50;6.75;;;9.10;99.90;;;;;;5030550;28;20056;-71
2024/03/14 05:34:55;;;;;;;13.20;8.80;;;9.10;99.90;;;;;;5031016;28;20092;-70
2024/03/14 05:37:24;;;;;;;12.82;11.25;;;9.10;99.90;;;;;;5014390;28;20073;-71
2024/03/14 05:39:51;;;;;;;9.85;8.27;;;9.00;99.90;;;;;;5030643;28;20522;-71
2024/03/14 05:42:18;;;;;;;10.93;8.80;;;9.00;99.90;;;;;;5030491;28;20042;-71
2024/03/14 05:44:49;;;;;;;10.85;9.75;;;9.00;99.90;;;;;;5013735;28;20054;-71
2024/03/14 05:47:16;;;;;;;10.45;8.32;;;9.00;99.90;;;;;;5013934;28;20069;-71
2024/03/14 05:49:43;;;;;;;8.77;7.85;;;9.00;99.90;;;;;;5015107;28;20050;-71
2024/03/14 05:52:11;;;;;;;16.73;14.93;;;9.00;99.90;;;;;;5014076;28;20042;-71
2024/03/14 05:54:39;;;;;;;8.80;7.53;;;8.90;99.90;;;;;;5014857;28;20041;-71
2024/03/14 05:57:06;;;;;;;13.10;8.60;;;9.00;99.90;;;;;;5015268;28;20069;-71
2024/03/14 05:59:36;;;;;;;10.80;7.63;;;9.00;99.90;;;;;;5046502;28;20488;-71
2024/03/14 06:02:03;;;;;;;13.18;11.82;;;9.00;99.90;;;;;;5013402;28;20123;-71
2024/03/14 06:04:30;;;;;;;12.65;11.48;;;9.00;99.90;;;;;;5029331;28;20038;-71
2024/03/14 06:06:58;;;;;;;10.57;8.77;;;9.00;99.90;;;;;;5014168;28;20149;-71
2024/03/14 06:09:41;;;;;;;15.38;12.38;;;9.10;99.90;;;;;;5029987;28;20583;-71
2024/03/14 06:12:09;;;;;;;8.48;7.35;;;9.10;99.90;;;;;;5014820;28;20479;-71
2024/03/14 06:14:38;;;;;;;13.30;11.13;;;9.10;99.90;;;;;;5013105;28;20049;-71
2024/03/14 06:17:06;;;;;;;14.65;9.35;;;9.20;99.90;;;;;;5014809;28;20145;-71
2024/03/14 06:19:33;;;;;;;16.17;11.82;;;9.20;99.90;;;;;;5046398;28;20046;-71
2024/03/14 06:22:00;;;;;;;10.77;8.43;;;9.20;99.90;;;;;;5014546;28;20042;-71
2024/03/14 06:24:26;;;;;;;15.10;10.85;;;9.30;99.90;;;;;;5013073;28;20049;-71
2024/03/14 06:26:53;;;;;;;15.25;13.65;;;9.30;99.90;;;;;;5029438;28;20141;-71
2024/03/14 06:29:22;;;;;;;13.60;10.55;;;9.30;99.90;;;;;;5013107;28;20100;-71
2024/03/14 06:31:50;;;;;;;13.25;10.65;;;9.40;99.90;;;;;;5029310;28;20041;-71
2024/03/14 06:34:17;;;;;;;18.55;16.55;;;9.40;99.90;;;;;;5012936;28;20045;-71
2024/03/14 06:36:44;;;;;;;14.73;10.40;;;9.40;99.90;;;;;;5012767;28;20077;-71
2024/03/14 06:39:11;;;;;;;11.68;9.70;;;9.50;99.90;;;;;;5014117;28;20073;-70
2024/03/14 06:41:38;;;;;;;13.18;11.27;;;9.50;99.90;;;;;;5028847;28;20054;-70
2024/03/14 06:44:06;;;;;;;11.07;9.10;;;9.50;99.90;;;;;;5013978;28;20060;-71
2024/03/14 06:46:34;;;;;;;9.75;8.60;;;9.60;99.90;;;;;;5029008;28;20510;-71
2024/03/14 06:49:02;;;;;;;12.20;9.93;;;9.60;99.90;;;;;;5014034;28;20070;-71
2024/03/14 06:51:29;;;;;;;17.23;13.43;;;9.60;99.90;;;;;;5012788;28;20052;-71
2024/03/14 06:53:56;;;;;;;14.02;12.50;;;9.70;99.90;;;;;;5013674;28;20064;-72
2024/03/14 06:56:25;;;;;;;13.60;11.63;;;9.70;99.90;;;;;;4996504;28;20073;-72
2024/03/14 06:58:52;;;;;;;13.77;12.30;;;9.80;99.90;;;;;;5028803;28;20037;-71
2024/03/14 07:01:19;;;;;;;11.73;9.73;;;9.80;99.90;;;;;;5013822;28;20100;-71
2024/03/14 07:03:46;;;;;;;12.88;10.70;;;9.90;99.90;;;;;;5012047;28;20050;-72
2024/03/14 07:06:14;;;;;;;17.70;14.88;;;9.90;99.90;;;;;;5013785;28;20124;-71
2024/03/14 07:08:44;;;;;;;12.82;9.38;;;10.00;99.90;;;;;;4996061;28;20492;-71
2024/03/14 07:11:15;;;;;;;15.63;13.38;;;10.00;99.90;;;;;;5013797;28;20104;-71
2024/03/14 07:13:48;;;;;;;15.65;13.02;;;10.10;99.90;;;;;;5013368;28;20069;-71
2024/03/14 07:16:16;;;;;;;14.93;10.55;;;10.20;99.90;;;;;;5012371;28;20049;-71
2024/03/14 07:18:45;;;;;;;12.85;11.07;;;10.30;99.90;;;;;;5012145;28;20041;-71
2024/03/14 07:21:12;;;;;;;11.10;9.65;;;10.30;99.90;;;;;;5028886;28;20057;-71
2024/03/14 07:23:39;;;;;;;15.70;13.00;;;10.40;99.90;;;;;;5013096;28;20046;-71
2024/03/14 07:26:07;;;;;;;13.32;11.98;;;10.50;99.90;;;;;;4995287;28;20042;-71
2024/03/14 07:28:34;;;;;;;10.90;7.82;;;10.60;99.90;;;;;;5013422;28;20050;-71
2024/03/14 07:31:04;;;;;;;17.63;12.48;;;10.60;99.90;;;;;;5012329;28;20439;-72
2024/03/14 07:33:31;;;;;;;14.82;12.40;;;10.70;99.90;;;;;;5012082;28;20438;-72
2024/03/14 07:35:58;;;;;;;13.32;11.95;;;10.80;99.90;;;;;;5011815;28;20403;-71
2024/03/14 07:38:27;;;;;;;12.30;10.98;;;10.80;99.90;;;;;;5011962;28;20046;-71
2024/03/14 07:40:55;;;;;;;11.85;9.75;;;10.90;99.90;;;;;;5012864;28;20073;-71
2024/03/14 07:43:22;;;;;;;18.77;15.57;;;11.00;99.90;;;;;;5012927;28;20402;-71
2024/03/14 07:45:49;;;;;;;8.40;7.18;;;11.10;99.90;;;;;;5027861;28;20049;-71
2024/03/14 07:48:17;;;;;;;11.77;9.25;;;11.20;99.90;;;;;;5013004;28;20045;-71
2024/03/14 07:50:45;;;;;;;17.30;9.57;;;11.30;99.90;;;;;;5011416;28;20053;-71
2024/03/14 07:53:15;;;;;;;12.23;10.10;;;11.40;99.90;;;;;;5027994;28;20041;-72
2024/03/14 07:55:42;;;;;;;17.02;13.20;;;11.50;99.90;;;;;;5028496;28;20050;-71
2024/03/14 07:58:09;;;;;;;12.18;8.13;;;11.60;99.90;;;;;;5012772;28;20487;-72
2024/03/14 08:00:36;;;;;;;14.05;12.50;;;11.80;99.90;;;;;;5028153;28;20037;-72
2024/03/14 08:03:04;;;;;;;12.98;10.40;;;12.10;99.90;;;;;;4995130;28;20107;-71
2024/03/14 08:05:32;;;;;;;15.90;14.35;;;12.40;99.90;;;;;;5027762;28;20407;-71
2024/03/14 08:08:01;;;;;;;13.73;10.02;;;12.70;99.90;;;;;;4995246;28;20505;-72
2024/03/14 08:10:35;;;;;;;13.43;10.02;;;13.20;99.90;;;;;;5027961;28;20042;-71
2024/03/14 08:13:02;;;;;;;12.77;10.38;;;13.50;99.90;;;;;;4995252;28;20096;-72
2024/03/14 08:15:35;;;;;;;9.75;8.57;;;14.00;99.90;;;;;;5011482;28;20069;-72
2024/03/14 08:18:04;;;;;;;11.88;9.85;;;14.30;99.90;;;;;;5042366;28;20046;-71
2024/03/14 08:20:36;;;;;;;9.30;7.90;;;14.30;99.90;;;;;;5012485;28;20376;-72
2024/03/14 08:23:08;;;;;;;11.38;10.15;;;14.50;99.90;;;;;;5043286;28;20040;-72
2024/03/14 08:25:39;;;;;;;13.40;9.98;;;14.50;99.90;;;;;;5011204;28;20495;-71
2024/03/14 08:28:06;;;;;;;;;;;14.30;99.90;;;;;;5011532;28;20053;-72
2024/03/14 08:30:37;;;;;;;10.68;8.52;;;14.10;99.90;;;;;;5012449;28;19928;-72
2024/03/14 08:33:05;;;;;;;12.10;10.90;;;13.90;99.90;;;;;;5044161;28;20440;-71
2024/03/14 08:35:36;;;;;;;10.02;7.45;;;13.60;99.90;;;;;;5012398;28;20502;-71
2024/03/14 08:38:04;;;;;;;9.60;8.60;;;13.50;99.90;;;;;;5013190;28;20046;-71
2024/03/14 08:40:31;;;;;;;10.82;9.73;;;13.20;99.90;;;;;;5031569;28;20447;-71
2024/03/14 08:42:58;;;;;;;9.18;6.78;;;13.20;99.90;;;;;;5016110;28;20037;-71
2024/03/14 08:45:25;;;;;;;10.27;8.57;;;13.10;99.90;;;;;;5031851;28;20073;-71
2024/03/14 08:47:53;;;;;;;13.35;10.70;;;13.10;99.90;;;;;;5016047;28;20042;-71
2024/03/14 08:50:21;;;;;;;13.23;9.73;;;13.10;99.90;;;;;;4998811;28;20045;-71
2024/03/14 08:52:50;;;;;;;10.77;9.57;;;13.30;99.90;;;;;;5031136;28;20419;-72
2024/03/14 08:55:23;;;;;;;9.93;8.90;;;13.80;99.90;;;;;;5016126;28;20072;-72
2024/03/14 08:57:51;;;;;;;11.73;9.98;;;14.30;99.90;;;;;;5030332;28;20527;-72
2024/03/14 09:00:21;;;;;;;15.73;14.18;;;14.70;99.90;;;;;;5016008;28;20053;-71
2024/03/14 09:02:49;;;;;;;10.93;8.85;;;14.90;99.90;;;;;;5030977;28;20107;-71
2024/03/14 09:05:17;;;;;;;14.75;12.98;;;15.00;99.90;;;;;;5014723;28;20050;-72
2024/03/14 09:07:45;;;;;;;9.38;8.25;;;14.90;99.90;;;;;;5015804;28;20128;-72
2024/03/14 09:10:16;;;;;;;8.93;6.90;;;14.80;99.90;;;;;;5015664;28;20049;-71
2024/03/14 09:12:45;;;;;;;8.98;7.95;;;14.80;99.90;;;;;;5030620;28;20041;-71
2024/03/14 09:15:12;;;;;;;9.27;8.40;;;14.80;99.90;;;;;;5015568;28;20042;-71
2024/03/14 09:17:40;;;;;;;11.13;10.05;;;14.70;99.90;;;;;;5015901;28;20438;-71
2024/03/14 09:20:15;;;;;;;10.77;8.25;;;14.60;99.90;;;;;;5030796;28;20144;-71
2024/03/14 09:22:46;;;;;;;10.05;9.15;;;14.80;99.90;;;;;;5015784;28;20041;-71
2024/03/14 09:25:14;;;;;;;;;;;14.90;99.90;;;;;;5015974;28;20084;-71
2024/03/14 09:27:43;;;;;;;8.65;7.65;;;14.90;99.90;;;;;;5015393;28;19929;-71
2024/03/14 09:30:13;;;;;;;9.65;7.72;;;15.10;99.90;;;;;;5014310;28;20476;-71
2024/03/14 09:32:41;;;;;;;10.48;9.57;;;15.20;99.90;;;;;;5014244;28;20395;-72
2024/03/14 09:35:15;;;;;;;7.55;6.85;;;15.50;99.90;;;;;;5046569;28;20073;-71
2024/03/14 09:37:45;;;;;;;9.50;8.45;;;15.40;99.90;;;;;;5030183;28;20096;-71
2024/03/14 09:40:13;;;;;;;8.02;7.25;;;15.40;99.90;;;;;;5013847;28;20116;-72
2024/03/14 09:42:41;;;;;;;8.43;7.63;;;15.30;99.90;;;;;;5014066;28;20049;-71
2024/03/14 09:45:12;;;;;;;9.65;6.78;;;15.20;99.90;;;;;;5015025;28;20092;-71
2024/03/14 09:47:41;;;;;;;6.88;5.95;;;15.20;99.90;;;;;;5015148;28;20060;-71
2024/03/14 09:50:18;;;;;;;8.65;7.75;;;15.20;99.90;;;;;;5014468;28;20129;-72
2024/03/14 09:52:48;;;;;;;7.57;5.55;;;15.30;99.90;;;;;;5015254;28;20045;-72
2024/03/14 09:55:16;;;;;;;9.05;8.20;;;15.40;99.90;;;;;;5013634;28;20439;-71
2024/03/14 09:57:43;;;;;;;10.00;7.43;;;15.50;99.90;;;;;;5015051;28;20129;-71
2024/03/14 10:00:12;;;;;;;7.75;7.00;;;15.70;99.90;;;;;;5029800;28;20059;-71
2024/03/14 10:02:41;;;;;;;7.25;6.10;;;15.90;99.80;;;;;;5014964;28;20092;-72
2024/03/14 10:05:11;;;;;;;8.55;7.75;;;16.00;99.90;;;;;;5029979;28;20046;-72
2024/03/14 10:07:39;;;;;;;11.65;10.35;;;16.00;99.30;;;;;;5014886;28;20050;-71
2024/03/14 10:10:07;;;;;;;9.13;8.23;;;16.00;99.50;;;;;;5030215;28;20038;-71
2024/03/14 10:12:36;;;;;;;8.50;7.38;;;16.20;99.80;;;;;;5013461;28;20072;-72
2024/03/14 10:15:12;;;;;;;7.65;5.90;;;16.70;98.60;;;;;;5014824;28;20125;-77
2024/03/14 10:17:42;;;;;;;6.75;5.78;;;17.20;98.30;;;;;;5028731;28;20140;-72
2024/03/14 10:20:14;;;;;;;6.57;5.95;;;17.50;98.00;;;;;;5013181;28;20081;-71
2024/03/14 10:22:41;;;;;;;8.60;7.55;;;17.90;96.80;;;;;;5014594;28;20042;-71
2024/03/14 10:25:17;;;;;;;11.27;8.55;;;18.20;96.40;;;;;;5014269;28;20049;-71
2024/03/14 10:27:54;;;;;;;6.30;5.40;;;18.10;94.90;;;;;;5013215;28;20117;-72
2024/03/14 10:30:28;;;;;;;6.38;5.75;;;18.30;95.50;;;;;;5011398;28;20050;-72
2024/03/14 10:32:56;;;;;;;6.53;5.75;;;18.80;94.70;;;;;;5013064;28;20177;-72
2024/03/14 10:35:23;;;;;;;7.85;7.15;;;19.00;93.70;;;;;;5014328;28;20041;-72
2024/03/14 10:37:57;;;;;;;8.25;7.40;;;19.00;93.90;;;;;;5014268;28;20053;-72
2024/03/14 10:40:29;;;;;;;9.05;8.13;;;18.90;93.70;;;;;;5014069;28;20049;-72
2024/03/14 10:42:57;;;;;;;9.32;8.45;;;18.80;93.40;;;;;;5014327;28;20452;-71
2024/03/14 10:45:27;;;;;;;6.32;5.43;;;18.70;93.10;;;;;;5014160;28;20240;-72
2024/03/14 10:47:56;;;;;;;;;;;18.50;93.40;;;;;;5014558;28;20483;-71
2024/03/14 10:50:26;;;;;;;6.97;6.07;;;18.30;93.70;;;;;;5013902;28;20023;-71
2024/03/14 10:52:54;;;;;;;7.65;6.90;;;18.00;94.00;;;;;;5012913;28;20116;-72
2024/03/14 10:55:22;;;;;;;9.25;8.45;;;17.60;94.40;;;;;;4996613;28;20700;-72
2024/03/14 10:57:50;;;;;;;9.35;8.43;;;17.30;95.10;;;;;;5012705;28;20049;-71
2024/03/14 11:00:19;;;;;;;5.88;5.20;;;17.00;95.20;;;;;;5012104;28;20109;-72
2024/03/14 11:02:47;;;;;;;9.93;9.02;;;16.70;95.70;;;;;;5013652;28;20435;-72
2024/03/14 11:05:17;;;;;;;10.70;9.48;;;16.50;95.80;;;;;;5012326;28;20462;-71
2024/03/14 11:07:46;;;;;;;7.38;6.15;;;16.20;96.00;;;;;;5013846;28;20081;-71
2024/03/14 11:10:27;;;;;;;9.25;7.65;;;16.10;96.60;;;;;;5013516;28;20038;-71
2024/03/14 11:13:05;;;;;;;7.45;6.75;;;16.10;96.90;;;;;;5012326;28;20329;-71
2024/03/14 11:15:37;;;;;;;7.55;6.82;;;16.30;97.00;;;;;;5013449;28;20050;-72
2024/03/14 11:18:13;;;;;;;9.93;7.47;;;16.50;96.70;;;;;;5013560;28;20077;-71
2024/03/14 11:20:46;;;;;;;7.57;6.97;;;16.70;96.30;;;;;;5013627;28;20092;-72
2024/03/14 11:23:18;;;;;;;7.68;6.75;;;17.00;96.00;;;;;;5012046;28;20061;-71
2024/03/14 11:25:52;;;;;;;5.55;5.05;;;17.30;95.50;;;;;;5013544;28;20131;-72
2024/03/14 11:28:19;;;;;;;7.57;5.85;;;17.40;94.90;;;;;;5011725;28;20046;-72
2024/03/14 11:30:57;;;;;;;7.55;4.65;;;17.40;94.70;;;;;;4995977;28;20097;-72
2024/03/14 11:33:28;;;;;;;7.15;6.53;;;17.50;95.10;;;;;;5013215;28;20041;-72
2024/03/14 11:35:59;;;;;;;7.93;7.22;;;17.70;94.80;;;;;;5013633;28;20391;-75
2024/03/14 11:38:30;;;;;;;5.53;4.65;;;17.90;94.10;;;;;;5011747;28;20103;-72
2024/03/14 11:41:06;;;;;;;7.82;6.13;;;17.90;94.50;;;;;;5011857;28;20057;-72
2024/03/14 11:43:33;;;;;;;4.13;3.72;;;17.90;94.30;;;;;;5012917;28;20049;-71
2024/03/14 11:46:05;;;;;;;6.78;5.05;;;17.70;94.40;;;;;;5011647;28;20516;-71
2024/03/14 11:48:33;;;;;;;6.55;5.90;;;17.80;94.80;;;;;;5011630;28;20038;-72
2024/03/14 11:51:01;;;;;;;7.70;7.00;;;17.90;94.40;;;;;;5013025;28;20450;-72
2024/03/14 11:53:29;;;;;;;5.57;5.07;;;18.00;93.70;;;;;;5012627;28;20100;-72
2024/03/14 11:55:57;;;;;;;4.28;3.88;;;17.70;93.30;;;;;;5011833;28;20073;-71
2024/03/14 11:58:28;;;;;;;6.47;5.05;;;17.60;94.00;;;;;;5011533;28;20045;-72
2024/03/14 12:00:56;;;;;;;7.40;6.70;;;17.40;94.50;;;;;;5011888;28;20092;-71
2024/03/14 12:03:23;;;;;;;6.18;4.85;;;17.20;94.80;;;;;;5011284;28;20518;-71
2024/03/14 12:05:53;;;;;;;6.07;5.28;;;17.10;95.30;;;;;;5011692;28;20061;-71
2024/03/14 12:08:21;;;;;;;6.00;4.28;;;17.10;95.00;;;;;;5012567;28;20045;-72
2024/03/14 12:10:54;;;;;;;5.47;3.90;;;17.00;95.00;;;;;;5012773;28;20038;-71
2024/03/14 12:13:26;;;;;;;5.18;4.75;;;17.10;95.30;;;;;;5011254;28;20072;-72
2024/03/14 12:16:02;;;;;;;6.82;5.75;;;17.20;95.10;;;;;;5011512;28;20137;-71
2024/03/14 12:18:29;;;;;;;4.68;4.22;;;17.20;94.20;;;;;;5012471;28;20132;-71
2024/03/14 12:20:58;;;;;;;7.10;5.43;;;17.20;94.10;;;;;;5012912;28;20120;-72
2024/03/14 12:23:27;;;;;;;5.65;4.22;;;17.40;93.80;;;;;;5011351;28;20056;-72
2024/03/14 12:26:04;;;;;;;6.05;4.63;;;17.70;93.60;;;;;;5011320;28;20049;-72
2024/03/14 12:28:33;;;;;;;5.25;4.70;;;17.80;93.50;;;;;;5011237;28;20140;-72
2024/03/14 12:31:01;;;;;;;5.72;4.05;;;18.40;92.30;;;;;;4995027;28;20042;-72
2024/03/14 12:33:28;;;;;;;6.13;5.50;;;19.10;91.50;;;;;;5011048;28;20038;-71
2024/03/14 12:35:56;;;;;;;4.38;3.97;;;19.60;89.80;;;;;;5012628;28;20471;-72
2024/03/14 12:38:23;;;;;;;5.63;5.15;;;19.90;90.10;;;;;;5011092;28;20069;-72
2024/03/14 12:40:57;;;;;;;4.70;3.15;;;20.20;89.60;;;;;;5012499;28;20088;-72
2024/03/14 12:43:30;;;;;;;5.65;5.07;;;20.30;90.10;;;;;;5011236;28;20515;-72
2024/03/14 12:46:00;;;;;;;5.35;4.53;;;20.90;89.40;;;;;;5012455;28;20049;-72
2024/03/14 12:48:28;;;;;;;5.63;5.13;;;21.30;87.40;;;;;;4995192;28;20045;-72
2024/03/14 12:51:09;;;;;;;5.43;3.38;;;21.20;84.80;;;;;;4994837;28;20042;-72